sensor_id;sensor_type;location;lat;lon;timestamp;temperature;humidity
2565;DHT22;1292;48.020;7.822;2023-12-29T06:45:40;10.50;99.90
2565;DHT22;1292;48.020;7.822;2023-12-29T06:48:07;10.50;99.90
2565;DHT22;1292;48.020;7.822;2023-12-29T06:50:34;10.50;99.90
2565;DHT22;1292;48.020;7.822;2023-12-29T06:53:02;10.40;99.90
2565;DHT22;1292;48.020;7.822;2023-12-29T06:55:29;10.40;99.90
2565;DHT22;1292;48.020;7.822;2023-12-29T06:57:56;10.40;99.90
2565;DHT22;1292;48.020;7.822;2023-12-29T07:00:23;10.40;99.90
2565;DHT22;1292;48.020;7.822;2023-12-29T07:02:51;10.50;99.90
2565;DHT22;1292;48.020;7.822;2023-12-29T07:05:18;10.40;99.90
2565;DHT22;1292;48.020;7.822;2023-12-29T07:07:45;10.40;99.90
2565;DHT22;1292;48.020;7.822;2023-12-29T07:10:12;10.40;99.90
2565;DHT22;1292;48.020;7.822;2023-12-29T07:12:40;10.40;99.90
2565;DHT22;1292;48.020;7.822;2023-12-29T07:15:07;10.40;99.90
2565;DHT22;1292;48.020;7.822;2023-12-29T07:17:34;10.40;99.90
2565;DHT22;1292;48.020;7.822;2023-12-29T07:20:03;10.50;99.90
2565;DHT22;1292;48.020;7.822;2023-12-29T07:22:29;10.50;99.90
2565;DHT22;1292;48.020;7.822;2023-12-29T07:24:56;10.50;99.90
2565;DHT22;1292;48.020;7.822;2023-12-29T07:27:23;10.60;99.90
2565;DHT22;1292;48.020;7.822;2023-12-29T07:29:50;10.60;99.90
2565;DHT22;1292;48.020;7.822;2023-12-29T07:32:17;10.60;99.90
2565;DHT22;1292;48.020;7.822;2023-12-29T07:34:43;10.60;99.90
2565;DHT22;1292;48.020;7.822;2023-12-29T07:37:12;10.60;99.90
2565;DHT22;1292;48.020;7.822;2023-12-29T07:39:38;10.60;99.90
2565;DHT22;1292;48.020;7.822;2023-12-29T07:42:06;10.70;99.90
2565;DHT22;1292;48.020;7.822;2023-12-29T07:44:32;10.70;99.90
2565;DHT22;1292;48.020;7.822;2023-12-29T07:46:59;10.70;99.90
2565;DHT22;1292;48.020;7.822;2023-12-29T07:49:26;10.70;99.90
2565;DHT22;1292;48.020;7.822;2023-12-29T07:51:53;10.70;99.90
2565;DHT22;1292;48.020;7.822;2023-12-29T07:54:21;10.70;99.90
2565;DHT22;1292;48.020;7.822;2023-12-29T07:56:47;10.70;99.90
2565;DHT22;1292;48.020;7.822;2023-12-29T07:59:16;10.70;99.90
2565;DHT22;1292;48.020;7.822;2023-12-29T08:01:43;10.80;99.90
2565;DHT22;1292;48.020;7.822;2023-12-29T08:04:10;10.80;99.90
2565;DHT22;1292;48.020;7.822;2023-12-29T08:06:37;10.80;99.90
2565;DHT22;1292;48.020;7.822;2023-12-29T08:09:04;10.80;99.90
2565;DHT22;1292;48.020;7.822;2023-12-29T08:11:34;10.80;99.90
2565;DHT22;1292;48.020;7.822;2023-12-29T08:14:01;10.80;99.90
2565;DHT22;1292;48.020;7.822;2023-12-29T08:16:28;10.90;99.90
2565;DHT22;1292;48.020;7.822;2023-12-29T08:18:55;10.90;99.90
2565;DHT22;1292;48.020;7.822;2023-12-29T08:21:22;10.90;99.90
2565;DHT22;1292;48.020;7.822;2023-12-29T08:23:49;11.00;99.90
2565;DHT22;1292;48.020;7.822;2023-12-29T08:26:15;11.00;99.90
2565;DHT22;1292;48.020;7.822;2023-12-29T08:28:43;11.00;99.90
2565;DHT22;1292;48.020;7.822;2023-12-29T08:31:10;11.00;99.90
2565;DHT22;1292;48.020;7.822;2023-12-29T08:33:37;11.10;99.90
2565;DHT22;1292;48.020;7.822;2023-12-29T08:36:05;11.10;99.90
2565;DHT22;1292;48.020;7.822;2023-12-29T08:38:32;11.20;99.90
2565;DHT22;1292;48.020;7.822;2023-12-29T08:40:59;11.20;99.90
2565;DHT22;1292;48.020;7.822;2023-12-29T08:43:26;11.20;99.90
2565;DHT22;1292;48.020;7.822;2023-12-29T08:45:54;11.20;99.90
2565;DHT22;1292;48.020;7.822;2023-12-29T08:48:21;11.20;99.90
2565;DHT22;1292;48.020;7.822;2023-12-29T08:50:49;11.20;99.90
2565;DHT22;1292;48.020;7.822;2023-12-29T08:53:17;11.30;99.90
2565;DHT22;1292;48.020;7.822;2023-12-29T08:55:44;11.30;99.90
2565;DHT22;1292;48.020;7.822;2023-12-29T08:58:12;11.40;99.90
2565;DHT22;1292;48.020;7.822;2023-12-29T09:00:39;11.40;99.90
2565;DHT22;1292;48.020;7.822;2023-12-29T09:03:07;11.50;99.90
2565;DHT22;1292;48.020;7.822;2023-12-29T09:05:34;11.50;99.90
2565;DHT22;1292;48.020;7.822;2023-12-29T09:08:01;11.50;99.90
2565;DHT22;1292;48.020;7.822;2023-12-29T09:10:27;11.50;99.90
2565;DHT22;1292;48.020;7.822;2023-12-29T09:12:54;11.50;99.90
2565;DHT22;1292;48.020;7.822;2023-12-29T09:15:21;11.60;99.90
2565;DHT22;1292;48.020;7.822;2023-12-29T09:17:48;11.70;99.90
2565;DHT22;1292;48.020;7.822;2023-12-29T09:20:16;11.70;99.90
2565;DHT22;1292;48.020;7.822;2023-12-29T09:22:43;11.70;99.90
2565;DHT22;1292;48.020;7.822;2023-12-29T09:25:12;11.80;99.90
2565;DHT22;1292;48.020;7.822;2023-12-29T09:27:39;11.80;99.90
2565;DHT22;1292;48.020;7.822;2023-12-29T09:30:07;11.80;99.90
2565;DHT22;1292;48.020;7.822;2023-12-29T09:32:34;11.80;99.90
2565;DHT22;1292;48.020;7.822;2023-12-29T09:35:01;11.90;99.90
2565;DHT22;1292;48.020;7.822;2023-12-29T09:37:30;11.90;99.90
2565;DHT22;1292;48.020;7.822;2023-12-29T09:39:57;11.90;99.90
2565;DHT22;1292;48.020;7.822;2023-12-29T09:42:24;12.00;99.90
2565;DHT22;1292;48.020;7.822;2023-12-29T09:44:55;11.90;99.90
2565;DHT22;1292;48.020;7.822;2023-12-29T09:47:24;11.90;99.90
2565;DHT22;1292;48.020;7.822;2023-12-29T09:49:52;11.80;99.90
2565;DHT22;1292;48.020;7.822;2023-12-29T09:52:20;11.80;99.90
2565;DHT22;1292;48.020;7.822;2023-12-29T09:54:51;11.90;99.90
2565;DHT22;1292;48.020;7.822;2023-12-29T09:57:18;11.80;99.90
2565;DHT22;1292;48.020;7.822;2023-12-29T09:59:45;11.80;99.90
2565;DHT22;1292;48.020;7.822;2023-12-29T10:02:17;11.80;99.90
2565;DHT22;1292;48.020;7.822;2023-12-29T10:04:44;11.80;99.90
2565;DHT22;1292;48.020;7.822;2023-12-29T10:07:16;11.90;99.90
2565;DHT22;1292;48.020;7.822;2023-12-29T10:09:45;11.80;99.90
2565;DHT22;1292;48.020;7.822;2023-12-29T10:12:15;11.80;99.90
2565;DHT22;1292;48.020;7.822;2023-12-29T10:14:48;11.90;99.90
2565;DHT22;1292;48.020;7.822;2023-12-29T10:17:23;11.90;99.90
2565;DHT22;1292;48.020;7.822;2023-12-29T10:20:02;11.90;99.90
2565;DHT22;1292;48.020;7.822;2023-12-29T10:22:38;12.00;99.90
2565;DHT22;1292;48.020;7.822;2023-12-29T10:25:06;12.00;99.90
2565;DHT22;1292;48.020;7.822;2023-12-29T10:27:35;12.00;99.90
2565;DHT22;1292;48.020;7.822;2023-12-29T10:30:02;12.00;99.90
2565;DHT22;1292;48.020;7.822;2023-12-29T10:32:29;12.00;99.90
2565;DHT22;1292;48.020;7.822;2023-12-29T10:35:07;12.10;99.90
2565;DHT22;1292;48.020;7.822;2023-12-29T10:37:35;12.10;99.90
2565;DHT22;1292;48.020;7.822;2023-12-29T10:40:02;12.10;99.90
2565;DHT22;1292;48.020;7.822;2023-12-29T10:42:29;12.10;99.90
2565;DHT22;1292;48.020;7.822;2023-12-29T10:45:08;12.10;99.90
2565;DHT22;1292;48.020;7.822;2023-12-29T10:47:35;12.10;99.90
2565;DHT22;1292;48.020;7.822;2023-12-29T10:50:04;12.10;99.90
2565;DHT22;1292;48.020;7.822;2023-12-29T10:52:31;12.10;99.90
2565;DHT22;1292;48.020;7.822;2023-12-29T10:55:06;12.10;99.90
2565;DHT22;1292;48.020;7.822;2023-12-29T10:57:33;12.10;99.90
2565;DHT22;1292;48.020;7.822;2023-12-29T11:00:00;12.10;99.90
2565;DHT22;1292;48.020;7.822;2023-12-29T11:02:28;12.20;99.90
2565;DHT22;1292;48.020;7.822;2023-12-29T11:05:02;12.20;99.90
2565;DHT22;1292;48.020;7.822;2023-12-29T11:07:34;12.30;99.90
2565;DHT22;1292;48.020;7.822;2023-12-29T11:10:02;12.30;99.90
2565;DHT22;1292;48.020;7.822;2023-12-29T11:12:31;12.30;99.90
2565;DHT22;1292;48.020;7.822;2023-12-29T11:15:00;12.30;99.90
2565;DHT22;1292;48.020;7.822;2023-12-29T11:17:30;12.40;99.90
2565;DHT22;1292;48.020;7.822;2023-12-29T11:19:59;12.30;99.90
2565;DHT22;1292;48.020;7.822;2023-12-29T11:22:29;12.30;99.90
2565;DHT22;1292;48.020;7.822;2023-12-29T11:24:56;12.30;99.90
2565;DHT22;1292;48.020;7.822;2023-12-29T11:27:27;12.40;99.90
2565;DHT22;1292;48.020;7.822;2023-12-29T11:29:55;12.50;99.90
2565;DHT22;1292;48.020;7.822;2023-12-29T11:32:32;12.50;99.90
2565;DHT22;1292;48.020;7.822;2023-12-29T11:35:13;12.50;99.90
2565;DHT22;1292;48.020;7.822;2023-12-29T11:38:00;12.50;99.90
2565;DHT22;1292;48.020;7.822;2023-12-29T11:40:33;12.50;99.90
2565;DHT22;1292;48.020;7.822;2023-12-29T11:43:07;12.50;99.90
2565;DHT22;1292;48.020;7.822;2023-12-29T11:45:35;12.50;99.90
2565;DHT22;1292;48.020;7.822;2023-12-29T11:48:05;12.50;99.90
2565;DHT22;1292;48.020;7.822;2023-12-29T11:50:33;12.50;99.90
2565;DHT22;1292;48.020;7.822;2023-12-29T11:53:00;12.50;99.90
2565;DHT22;1292;48.020;7.822;2023-12-29T11:55:31;12.60;99.90
2565;DHT22;1292;48.020;7.822;2023-12-29T11:57:59;12.60;99.90
2565;DHT22;1292;48.020;7.822;2023-12-29T12:00:42;12.50;99.90
2565;DHT22;1292;48.020;7.822;2023-12-29T12:03:18;12.50;99.90
2565;DHT22;1292;48.020;7.822;2023-12-29T12:05:47;12.50;99.90
2565;DHT22;1292;48.020;7.822;2023-12-29T12:08:27;12.50;99.90
2565;DHT22;1292;48.020;7.822;2023-12-29T12:10:55;12.50;99.90
2565;DHT22;1292;48.020;7.822;2023-12-29T12:13:43;12.60;99.90
2565;DHT22;1292;48.020;7.822;2023-12-29T12:16:46;12.60;99.90
2565;DHT22;1292;48.020;7.822;2023-12-29T12:19:16;12.60;99.90
2565;DHT22;1292;48.020;7.822;2023-12-29T12:21:46;12.60;99.90
2565;DHT22;1292;48.020;7.822;2023-12-29T12:24:13;12.60;99.90
2565;DHT22;1292;48.020;7.822;2023-12-29T12:26:41;12.60;99.90
2565;DHT22;1292;48.020;7.822;2023-12-29T12:29:08;12.60;99.90
2565;DHT22;1292;48.020;7.822;2023-12-29T12:31:35;12.50;99.90
2565;DHT22;1292;48.020;7.822;2023-12-29T12:34:02;12.50;99.90
2565;DHT22;1292;48.020;7.822;2023-12-29T12:36:32;12.50;99.90
2565;DHT22;1292;48.020;7.822;2023-12-29T12:38:59;12.50;99.90
2565;DHT22;1292;48.020;7.822;2023-12-29T12:41:26;12.50;99.90
2565;DHT22;1292;48.020;7.822;2023-12-29T12:44:00;12.50;99.90
2565;DHT22;1292;48.020;7.822;2023-12-29T12:46:33;12.50;99.90
2565;DHT22;1292;48.020;7.822;2023-12-29T12:49:00;12.50;99.90
2565;DHT22;1292;48.020;7.822;2023-12-29T12:51:27;12.60;99.90
2565;DHT22;1292;48.020;7.822;2023-12-29T12:53:55;12.50;99.90
2565;DHT22;1292;48.020;7.822;2023-12-29T12:56:22;12.50;99.90
2565;DHT22;1292;48.020;7.822;2023-12-29T12:58:53;12.50;99.90
2565;DHT22;1292;48.020;7.822;2023-12-29T13:01:21;12.50;99.90
2565;DHT22;1292;48.020;7.822;2023-12-29T13:03:48;12.50;99.90
2565;DHT22;1292;48.020;7.822;2023-12-29T13:06:15;12.50;99.90
2565;DHT22;1292;48.020;7.822;2023-12-29T13:08:43;12.50;99.90
2565;DHT22;1292;48.020;7.822;2023-12-29T13:11:12;12.60;99.90
2565;DHT22;1292;48.020;7.822;2023-12-29T13:13:39;12.60;99.90
2565;DHT22;1292;48.020;7.822;2023-12-29T13:16:06;12.60;99.90
2565;DHT22;1292;48.020;7.822;2023-12-29T13:18:33;12.70;99.90
2565;DHT22;1292;48.020;7.822;2023-12-29T13:21:01;12.60;99.90
2565;DHT22;1292;48.020;7.822;2023-12-29T13:23:29;12.60;99.90
2565;DHT22;1292;48.020;7.822;2023-12-29T13:25:57;12.60;99.90
2565;DHT22;1292;48.020;7.822;2023-12-29T13:28:27;12.60;99.90
2565;DHT22;1292;48.020;7.822;2023-12-29T13:30:55;12.60;99.90
2565;DHT22;1292;48.020;7.822;2023-12-29T13:33:27;12.60;99.90
2565;DHT22;1292;48.020;7.822;2023-12-29T13:36:05;12.60;99.90
2565;DHT22;1292;48.020;7.822;2023-12-29T13:38:39;12.60;99.90
2565;DHT22;1292;48.020;7.822;2023-12-29T13:41:10;12.50;99.90
2565;DHT22;1292;48.020;7.822;2023-12-29T13:43:42;12.50;99.90
2565;DHT22;1292;48.020;7.822;2023-12-29T13:46:10;12.60;99.90
2565;DHT22;1292;48.020;7.822;2023-12-29T13:48:38;12.60;99.90
2565;DHT22;1292;48.020;7.822;2023-12-29T13:51:07;12.60;99.90
2565;DHT22;1292;48.020;7.822;2023-12-29T13:53:34;12.60;99.90
2565;DHT22;1292;48.020;7.822;2023-12-29T13:56:06;12.50;99.90
2565;DHT22;1292;48.020;7.822;2023-12-29T13:58:33;12.50;99.90
2565;DHT22;1292;48.020;7.822;2023-12-29T14:01:04;12.50;99.90
2565;DHT22;1292;48.020;7.822;2023-12-29T14:03:42;12.50;99.90
2565;DHT22;1292;48.020;7.822;2023-12-29T14:06:12;12.50;99.90
2565;DHT22;1292;48.020;7.822;2023-12-29T14:08:45;12.50;99.90
2565;DHT22;1292;48.020;7.822;2023-12-29T14:11:12;12.60;99.90
2565;DHT22;1292;48.020;7.822;2023-12-29T14:13:41;12.50;99.90
2565;DHT22;1292;48.020;7.822;2023-12-29T14:16:10;12.50;99.90
2565;DHT22;1292;48.020;7.822;2023-12-29T14:18:52;12.50;99.90
2565;DHT22;1292;48.020;7.822;2023-12-29T14:21:23;12.50;99.90
2565;DHT22;1292;48.020;7.822;2023-12-29T14:24:01;12.50;99.90
2565;DHT22;1292;48.020;7.822;2023-12-29T14:26:28;12.50;99.90
2565;DHT22;1292;48.020;7.822;2023-12-29T14:29:03;12.50;99.90
2565;DHT22;1292;48.020;7.822;2023-12-29T14:31:34;12.40;99.90
2565;DHT22;1292;48.020;7.822;2023-12-29T14:34:02;12.40;99.90
2565;DHT22;1292;48.020;7.822;2023-12-29T14:36:29;12.40;99.90
2565;DHT22;1292;48.020;7.822;2023-12-29T14:38:56;12.40;99.90
2565;DHT22;1292;48.020;7.822;2023-12-29T14:41:23;12.40;99.90
2565;DHT22;1292;48.020;7.822;2023-12-29T14:43:50;12.40;99.90
2565;DHT22;1292;48.020;7.822;2023-12-29T14:46:16;12.30;99.90
2565;DHT22;1292;48.020;7.822;2023-12-29T14:48:45;12.40;99.90
2565;DHT22;1292;48.020;7.822;2023-12-29T14:51:12;12.30;99.90
2565;DHT22;1292;48.020;7.822;2023-12-29T14:53:39;12.40;99.90
2565;DHT22;1292;48.020;7.822;2023-12-29T14:56:06;12.40;99.90
2565;DHT22;1292;48.020;7.822;2023-12-29T14:58:33;12.30;99.90
2565;DHT22;1292;48.020;7.822;2023-12-29T15:01:02;12.30;99.90
2565;DHT22;1292;48.020;7.822;2023-12-29T15:03:29;12.30;99.90
2565;DHT22;1292;48.020;7.822;2023-12-29T15:05:58;12.20;99.90
2565;DHT22;1292;48.020;7.822;2023-12-29T15:08:24;12.30;99.90
2565;DHT22;1292;48.020;7.822;2023-12-29T15:10:53;12.30;99.90
2565;DHT22;1292;48.020;7.822;2023-12-29T15:13:20;12.20;99.90
2565;DHT22;1292;48.020;7.822;2023-12-29T15:15:47;12.10;99.90
2565;DHT22;1292;48.020;7.822;2023-12-29T15:18:14;12.10;99.90
2565;DHT22;1292;48.020;7.822;2023-12-29T15:20:42;12.10;99.90
2565;DHT22;1292;48.020;7.822;2023-12-29T15:23:10;12.10;99.90
2565;DHT22;1292;48.020;7.822;2023-12-29T15:25:37;12.10;99.90
2565;DHT22;1292;48.020;7.822;2023-12-29T15:28:04;12.00;99.90
2565;DHT22;1292;48.020;7.822;2023-12-29T15:30:32;12.00;99.90
2565;DHT22;1292;48.020;7.822;2023-12-29T15:32:58;12.00;99.90
2565;DHT22;1292;48.020;7.822;2023-12-29T15:35:25;12.00;99.90
2565;DHT22;1292;48.020;7.822;2023-12-29T15:37:54;12.00;99.90
2565;DHT22;1292;48.020;7.822;2023-12-29T15:40:22;12.00;99.90
2565;DHT22;1292;48.020;7.822;2023-12-29T15:42:48;11.90;99.90
2565;DHT22;1292;48.020;7.822;2023-12-29T15:45:15;11.90;99.90
2565;DHT22;1292;48.020;7.822;2023-12-29T15:47:44;11.90;99.90
2565;DHT22;1292;48.020;7.822;2023-12-29T15:50:11;11.90;99.90
2565;DHT22;1292;48.020;7.822;2023-12-29T15:52:37;11.90;99.90
2565;DHT22;1292;48.020;7.822;2023-12-29T15:55:05;11.90;99.90
2565;DHT22;1292;48.020;7.822;2023-12-29T15:57:34;11.80;99.90
2565;DHT22;1292;48.020;7.822;2023-12-29T16:00:01;11.80;99.90
2565;DHT22;1292;48.020;7.822;2023-12-29T16:02:29;11.80;99.90
2565;DHT22;1292;48.020;7.822;2023-12-29T16:04:55;11.80;99.90
2565;DHT22;1292;48.020;7.822;2023-12-29T16:07:22;11.80;99.90
2565;DHT22;1292;48.020;7.822;2023-12-29T16:09:49;11.70;99.90
2565;DHT22;1292;48.020;7.822;2023-12-29T16:12:16;11.70;99.90
2565;DHT22;1292;48.020;7.822;2023-12-29T16:14:45;11.70;99.90
2565;DHT22;1292;48.020;7.822;2023-12-29T16:17:11;11.80;99.90
2565;DHT22;1292;48.020;7.822;2023-12-29T16:19:38;11.80;99.90
2565;DHT22;1292;48.020;7.822;2023-12-29T16:22:05;11.70;99.90
2565;DHT22;1292;48.020;7.822;2023-12-29T16:24:32;11.70;99.90
2565;DHT22;1292;48.020;7.822;2023-12-29T16:26:59;11.70;99.90
2565;DHT22;1292;48.020;7.822;2023-12-29T16:29:25;11.60;99.90
2565;DHT22;1292;48.020;7.822;2023-12-29T16:31:53;11.70;99.90
2565;DHT22;1292;48.020;7.822;2023-12-29T16:34:20;11.60;99.90
2565;DHT22;1292;48.020;7.822;2023-12-29T16:36:56;11.60;99.90
2565;DHT22;1292;48.020;7.822;2023-12-29T16:39:23;11.60;99.90
2565;DHT22;1292;48.020;7.822;2023-12-29T16:41:50;11.60;99.90
2565;DHT22;1292;48.020;7.822;2023-12-29T16:44:17;11.60;99.90
2565;DHT22;1292;48.020;7.822;2023-12-29T16:46:44;11.60;99.90
2565;DHT22;1292;48.020;7.822;2023-12-29T16:49:12;11.60;99.90
2565;DHT22;1292;48.020;7.822;2023-12-29T16:51:39;11.60;99.90
2565;DHT22;1292;48.020;7.822;2023-12-29T16:54:06;11.50;99.90
2565;DHT22;1292;48.020;7.822;2023-12-29T16:56:33;11.50;99.90
2565;DHT22;1292;48.020;7.822;2023-12-29T16:59:00;11.50;99.90
2565;DHT22;1292;48.020;7.822;2023-12-29T17:01:28;11.40;99.90
2565;DHT22;1292;48.020;7.822;2023-12-29T17:03:55;11.40;99.90
2565;DHT22;1292;48.020;7.822;2023-12-29T17:06:23;11.30;99.90
2565;DHT22;1292;48.020;7.822;2023-12-29T17:08:50;11.30;99.90
2565;DHT22;1292;48.020;7.822;2023-12-29T17:11:17;11.30;99.90
2565;DHT22;1292;48.020;7.822;2023-12-29T17:13:44;11.30;99.90
2565;DHT22;1292;48.020;7.822;2023-12-29T17:16:11;11.30;99.90
2565;DHT22;1292;48.020;7.822;2023-12-29T17:18:37;11.30;99.90
2565;DHT22;1292;48.020;7.822;2023-12-29T17:21:05;11.30;99.90
2565;DHT22;1292;48.020;7.822;2023-12-29T17:23:35;11.20;99.90
2565;DHT22;1292;48.020;7.822;2023-12-29T17:26:02;11.20;99.90
2565;DHT22;1292;48.020;7.822;2023-12-29T17:28:34;11.20;99.90
2565;DHT22;1292;48.020;7.822;2023-12-29T17:31:02;11.20;99.90
2565;DHT22;1292;48.020;7.822;2023-12-29T17:33:29;11.20;99.90
2565;DHT22;1292;48.020;7.822;2023-12-29T17:35:56;11.10;99.90
2565;DHT22;1292;48.020;7.822;2023-12-29T17:38:22;11.20;99.90
2565;DHT22;1292;48.020;7.822;2023-12-29T17:40:50;11.10;99.90
2565;DHT22;1292;48.020;7.822;2023-12-29T17:43:17;11.10;99.90
2565;DHT22;1292;48.020;7.822;2023-12-29T17:45:44;11.00;99.90
2565;DHT22;1292;48.020;7.822;2023-12-29T17:48:11;11.00;99.90
2565;DHT22;1292;48.020;7.822;2023-12-29T17:50:39;11.00;99.90
2565;DHT22;1292;48.020;7.822;2023-12-29T17:53:06;11.00;99.90
2565;DHT22;1292;48.020;7.822;2023-12-29T17:55:33;11.00;99.90
2565;DHT22;1292;48.020;7.822;2023-12-29T17:58:01;10.90;99.90
2565;DHT22;1292;48.020;7.822;2023-12-29T18:00:28;10.90;99.90
2565;DHT22;1292;48.020;7.822;2023-12-29T18:02:55;10.90;99.90
2565;DHT22;1292;48.020;7.822;2023-12-29T18:05:22;10.90;99.90
2565;DHT22;1292;48.020;7.822;2023-12-29T18:07:50;10.90;99.90
2565;DHT22;1292;48.020;7.822;2023-12-29T18:10:17;10.90;99.90
2565;DHT22;1292;48.020;7.822;2023-12-29T18:12:43;10.90;99.90
2565;DHT22;1292;48.020;7.822;2023-12-29T18:15:12;10.90;99.90
2565;DHT22;1292;48.020;7.822;2023-12-29T18:17:40;10.80;99.90
2565;DHT22;1292;48.020;7.822;2023-12-29T18:20:07;10.90;99.90
2565;DHT22;1292;48.020;7.822;2023-12-29T18:22:38;10.90;99.90
2565;DHT22;1292;48.020;7.822;2023-12-29T18:25:06;10.90;99.90
2565;DHT22;1292;48.020;7.822;2023-12-29T18:27:33;10.80;99.90
2565;DHT22;1292;48.020;7.822;2023-12-29T18:29:59;10.80;99.90
2565;DHT22;1292;48.020;7.822;2023-12-29T18:32:27;10.80;99.90
2565;DHT22;1292;48.020;7.822;2023-12-29T18:34:54;10.80;99.90
2565;DHT22;1292;48.020;7.822;2023-12-29T18:37:21;10.80;99.90
2565;DHT22;1292;48.020;7.822;2023-12-29T18:39:48;10.70;99.90
2565;DHT22;1292;48.020;7.822;2023-12-29T18:42:15;10.70;99.90
2565;DHT22;1292;48.020;7.822;2023-12-29T18:44:42;10.70;99.90
2565;DHT22;1292;48.020;7.822;2023-12-29T18:47:09;10.70;99.90
2565;DHT22;1292;48.020;7.822;2023-12-29T18:49:38;10.70;99.90
2565;DHT22;1292;48.020;7.822;2023-12-29T18:52:05;10.60;99.90
2565;DHT22;1292;48.020;7.822;2023-12-29T18:54:32;10.60;99.90
2565;DHT22;1292;48.020;7.822;2023-12-29T18:56:59;10.60;99.90
2565;DHT22;1292;48.020;7.822;2023-12-29T18:59:26;10.60;99.90
2565;DHT22;1292;48.020;7.822;2023-12-29T19:01:53;10.60;99.90
2565;DHT22;1292;48.020;7.822;2023-12-29T19:04:21;10.70;99.90
2565;DHT22;1292;48.020;7.822;2023-12-29T19:06:49;10.60;99.90
2565;DHT22;1292;48.020;7.822;2023-12-29T19:09:16;10.60;99.90
2565;DHT22;1292;48.020;7.822;2023-12-29T19:11:43;10.60;99.90
2565;DHT22;1292;48.020;7.822;2023-12-29T19:14:10;10.60;99.90
2565;DHT22;1292;48.020;7.822;2023-12-29T19:16:36;10.60;99.90
2565;DHT22;1292;48.020;7.822;2023-12-29T19:19:03;10.50;99.90
2565;DHT22;1292;48.020;7.822;2023-12-29T19:21:30;10.60;99.90
2565;DHT22;1292;48.020;7.822;2023-12-29T19:24:00;10.60;99.90
2565;DHT22;1292;48.020;7.822;2023-12-29T19:26:27;10.60;99.90
2565;DHT22;1292;48.020;7.822;2023-12-29T19:28:54;10.60;99.90
2565;DHT22;1292;48.020;7.822;2023-12-29T19:31:22;10.60;99.90
2565;DHT22;1292;48.020;7.822;2023-12-29T19:33:50;10.60;99.90
2565;DHT22;1292;48.020;7.822;2023-12-29T19:36:18;10.70;99.90
2565;DHT22;1292;48.020;7.822;2023-12-29T19:38:46;10.80;99.90
2565;DHT22;1292;48.020;7.822;2023-12-29T19:41:17;10.80;99.90
2565;DHT22;1292;48.020;7.822;2023-12-29T19:43:46;10.80;99.90
2565;DHT22;1292;48.020;7.822;2023-12-29T19:46:13;10.90;99.90
2565;DHT22;1292;48.020;7.822;2023-12-29T19:48:40;10.80;99.90
2565;DHT22;1292;48.020;7.822;2023-12-29T19:51:07;10.90;99.90
2565;DHT22;1292;48.020;7.822;2023-12-29T19:53:34;10.90;99.90
2565;DHT22;1292;48.020;7.822;2023-12-29T19:56:01;11.00;99.90
2565;DHT22;1292;48.020;7.822;2023-12-29T19:58:31;11.10;99.90
2565;DHT22;1292;48.020;7.822;2023-12-29T20:00:59;11.10;99.90
2565;DHT22;1292;48.020;7.822;2023-12-29T20:03:26;11.10;99.90
2565;DHT22;1292;48.020;7.822;2023-12-29T20:05:53;11.00;99.90
2565;DHT22;1292;48.020;7.822;2023-12-29T20:08:20;11.10;99.90
2565;DHT22;1292;48.020;7.822;2023-12-29T20:10:47;11.10;99.90
2565;DHT22;1292;48.020;7.822;2023-12-29T20:13:14;11.20;99.90
2565;DHT22;1292;48.020;7.822;2023-12-29T20:15:42;11.20;99.90
2565;DHT22;1292;48.020;7.822;2023-12-29T20:18:09;11.10;99.90
2565;DHT22;1292;48.020;7.822;2023-12-29T20:20:37;11.10;99.90
2565;DHT22;1292;48.020;7.822;2023-12-29T20:23:04;11.10;99.90
2565;DHT22;1292;48.020;7.822;2023-12-29T20:25:31;11.10;99.90
2565;DHT22;1292;48.020;7.822;2023-12-29T20:28:00;11.10;99.90
2565;DHT22;1292;48.020;7.822;2023-12-29T20:30:27;11.00;99.90
2565;DHT22;1292;48.020;7.822;2023-12-29T20:32:55;11.10;99.90
2565;DHT22;1292;48.020;7.822;2023-12-29T20:35:22;11.00;99.90
2565;DHT22;1292;48.020;7.822;2023-12-29T20:37:49;11.00;99.90
2565;DHT22;1292;48.020;7.822;2023-12-29T20:40:15;11.00;99.90
2565;DHT22;1292;48.020;7.822;2023-12-29T20:42:42;10.90;99.90
2565;DHT22;1292;48.020;7.822;2023-12-29T20:45:11;10.80;99.90
2565;DHT22;1292;48.020;7.822;2023-12-29T20:47:38;10.90;99.90
2565;DHT22;1292;48.020;7.822;2023-12-29T20:50:07;10.80;99.90
2565;DHT22;1292;48.020;7.822;2023-12-29T20:52:34;10.80;99.90
2565;DHT22;1292;48.020;7.822;2023-12-29T20:55:01;10.80;99.90
2565;DHT22;1292;48.020;7.822;2023-12-29T20:57:30;10.80;99.90
2565;DHT22;1292;48.020;7.822;2023-12-29T20:59:57;10.80;99.90
2565;DHT22;1292;48.020;7.822;2023-12-29T21:02:24;10.80;99.90
2565;DHT22;1292;48.020;7.822;2023-12-29T21:04:51;10.80;99.90
2565;DHT22;1292;48.020;7.822;2023-12-29T21:07:20;10.70;99.90
2565;DHT22;1292;48.020;7.822;2023-12-29T21:09:46;10.70;99.90
2565;DHT22;1292;48.020;7.822;2023-12-29T21:12:14;10.70;99.90
2565;DHT22;1292;48.020;7.822;2023-12-29T21:14:40;10.60;99.90
2565;DHT22;1292;48.020;7.822;2023-12-29T21:17:07;10.70;99.90
2565;DHT22;1292;48.020;7.822;2023-12-29T21:19:34;10.70;99.90
2565;DHT22;1292;48.020;7.822;2023-12-29T21:22:01;10.70;99.90
2565;DHT22;1292;48.020;7.822;2023-12-29T21:24:29;10.70;99.90
2565;DHT22;1292;48.020;7.822;2023-12-29T21:26:56;10.70;99.90
2565;DHT22;1292;48.020;7.822;2023-12-29T21:29:22;10.70;99.90
2565;DHT22;1292;48.020;7.822;2023-12-29T21:31:49;10.60;99.90
2565;DHT22;1292;48.020;7.822;2023-12-29T21:34:16;10.70;99.90
2565;DHT22;1292;48.020;7.822;2023-12-29T21:36:44;10.60;99.90
2565;DHT22;1292;48.020;7.822;2023-12-29T21:39:10;10.60;99.90
2565;DHT22;1292;48.020;7.822;2023-12-29T21:41:39;10.60;99.90
2565;DHT22;1292;48.020;7.822;2023-12-29T21:44:06;10.60;99.90
2565;DHT22;1292;48.020;7.822;2023-12-29T21:46:34;10.60;99.90
2565;DHT22;1292;48.020;7.822;2023-12-29T21:49:01;10.60;99.90
2565;DHT22;1292;48.020;7.822;2023-12-29T21:51:28;10.70;99.90
2565;DHT22;1292;48.020;7.822;2023-12-29T21:53:55;10.60;99.90
2565;DHT22;1292;48.020;7.822;2023-12-29T21:56:22;10.50;99.90
2565;DHT22;1292;48.020;7.822;2023-12-29T21:58:50;10.50;99.90
2565;DHT22;1292;48.020;7.822;2023-12-29T22:01:29;10.40;99.90
2565;DHT22;1292;48.020;7.822;2023-12-29T22:03:57;10.50;99.90
2565;DHT22;1292;48.020;7.822;2023-12-29T22:06:24;10.50;99.90
2565;DHT22;1292;48.020;7.822;2023-12-29T22:08:50;10.50;99.90
2565;DHT22;1292;48.020;7.822;2023-12-29T22:11:17;10.40;99.90
2565;DHT22;1292;48.020;7.822;2023-12-29T22:13:44;10.50;99.90
2565;DHT22;1292;48.020;7.822;2023-12-29T22:16:14;10.40;99.90
2565;DHT22;1292;48.020;7.822;2023-12-29T22:18:41;10.40;99.90
2565;DHT22;1292;48.020;7.822;2023-12-29T22:21:12;10.40;99.90
2565;DHT22;1292;48.020;7.822;2023-12-29T22:23:39;10.40;99.90
2565;DHT22;1292;48.020;7.822;2023-12-29T22:26:06;10.40;99.90
2565;DHT22;1292;48.020;7.822;2023-12-29T22:28:32;10.40;99.90
2565;DHT22;1292;48.020;7.822;2023-12-29T22:30:59;10.30;99.90
2565;DHT22;1292;48.020;7.822;2023-12-29T22:33:28;10.30;99.90
2565;DHT22;1292;48.020;7.822;2023-12-29T22:35:54;10.30;99.90
2565;DHT22;1292;48.020;7.822;2023-12-29T22:38:21;10.30;99.90
